createdAt,value
2018-03-02T00:01:27.044Z,33.5
2018-03-02T00:11:26.326Z,35.2
2018-03-02T00:21:26.386Z,34.1
2018-03-02T00:31:26.593Z,30.3
2018-03-02T00:41:27.064Z,36.4
2018-03-02T00:51:26.357Z,34.5
2018-03-02T01:01:27.465Z,31.3
2018-03-02T01:11:29.827Z,31.4
2018-03-02T01:21:27.454Z,31.2
2018-03-02T01:31:27.052Z,34.5
2018-03-02T01:41:26.762Z,35.5
2018-03-02T01:51:26.040Z,33.1
2018-03-02T02:01:27.736Z,33.6
2018-03-02T02:11:26.361Z,32.5
2018-03-02T02:21:26.436Z,33.9
2018-03-02T02:31:26.325Z,35.5
2018-03-02T02:41:25.629Z,34.4
2018-03-02T02:51:25.929Z,30.2
2018-03-02T03:01:26.192Z,35.3
2018-03-02T03:11:25.448Z,33.4
2018-03-02T03:21:25.974Z,30.4
2018-03-02T03:31:27.093Z,33.3
2018-03-02T03:41:25.385Z,31.4
2018-03-02T03:51:27.092Z,32.2
2018-03-02T04:01:26.640Z,32.8
2018-03-02T04:11:26.746Z,33.1
2018-03-02T04:21:26.582Z,34.2
2018-03-02T04:31:26.545Z,29.6
2018-03-02T04:41:25.928Z,30.8
2018-03-02T04:51:26.159Z,30.3
2018-03-02T05:01:32.379Z,31.5
2018-03-02T05:11:25.826Z,32.5
2018-03-02T05:21:27.934Z,28.8
2018-03-02T05:31:29.101Z,31.3
2018-03-02T05:41:25.950Z,31.2
2018-03-02T05:51:26.741Z,32.6
2018-03-02T06:01:26.014Z,34.0
2018-03-02T06:11:26.433Z,28.7
2018-03-02T06:21:26.687Z,29.8
2018-03-02T06:31:26.294Z,37.6
2018-03-02T06:41:26.188Z,38.5
2018-03-02T06:51:26.820Z,37.2
2018-03-02T07:01:26.160Z,37.5
2018-03-02T07:11:25.425Z,37.1
2018-03-02T07:21:26.862Z,39.6
2018-03-02T07:31:26.924Z,37.9
2018-03-02T07:41:26.837Z,45.0
2018-03-02T07:51:28.381Z,35.6
2018-03-02T08:01:26.051Z,34.8
2018-03-02T08:11:26.631Z,33.7
2018-03-02T08:21:26.084Z,25.9
2018-03-02T08:31:25.498Z,28.3
2018-03-02T08:41:25.993Z,31.6
2018-03-02T08:51:26.618Z,24.8
2018-03-02T09:01:25.893Z,26.1
2018-03-02T09:11:27.186Z,25.0
2018-03-02T09:21:28.305Z,26.4
2018-03-02T09:31:25.691Z,29.2
2018-03-02T09:41:26.626Z,30.6
2018-03-02T09:51:25.959Z,34.1
2018-03-02T10:01:26.336Z,29.3
2018-03-02T10:11:26.358Z,25.9
2018-03-02T10:21:26.272Z,28.9
2018-03-02T10:31:25.865Z,27.0
2018-03-02T10:41:26.783Z,26.2
2018-03-02T10:51:26.793Z,27.6
2018-03-02T11:01:27.610Z,26.7
2018-03-02T11:11:25.858Z,25.4
2018-03-02T11:21:27.021Z,22.1
2018-03-02T11:31:27.803Z,28.0
2018-03-02T11:41:26.397Z,32.3
2018-03-02T11:51:26.012Z,31.2
2018-03-02T12:01:27.295Z,30.3
2018-03-02T12:11:25.722Z,31.8
2018-03-02T12:21:28.342Z,30.5
2018-03-02T12:31:25.939Z,34.2
2018-03-02T12:41:26.377Z,32.1
2018-03-02T12:51:31.361Z,34.1
2018-03-02T13:01:26.341Z,26.4
2018-03-02T13:11:25.734Z,30.2
2018-03-02T13:21:26.267Z,30.0
2018-03-02T13:31:25.933Z,27.6
2018-03-02T13:41:26.660Z,27.7
2018-03-02T13:51:28.132Z,26.2
2018-03-02T14:01:28.360Z,26.5
2018-03-02T14:11:26.671Z,25.0
2018-03-02T14:21:26.716Z,25.4
2018-03-02T14:31:26.058Z,23.2
2018-03-02T14:41:26.569Z,23.7
2018-03-02T14:51:26.269Z,22.0
2018-03-02T15:01:26.008Z,23.1
2018-03-02T15:11:26.410Z,21.0
2018-03-02T15:21:26.404Z,22.5
2018-03-02T15:31:26.025Z,22.2
2018-03-02T15:41:27.855Z,19.8
2018-03-02T15:51:25.938Z,21.4
2018-03-02T16:01:26.392Z,20.0
2018-03-02T16:11:26.761Z,22.1
2018-03-02T16:21:27.233Z,19.9
2018-03-02T16:31:26.017Z,19.2
2018-03-02T16:41:26.491Z,19.4
2018-03-02T16:51:25.894Z,19.9
2018-03-02T17:01:26.686Z,19.1
2018-03-02T17:11:27.225Z,21.3
2018-03-02T17:21:25.940Z,21.7
2018-03-02T17:31:27.128Z,18.4
2018-03-02T17:41:26.857Z,18.2
2018-03-02T17:51:25.783Z,20.7
2018-03-02T18:01:26.189Z,18.1
2018-03-02T18:11:25.625Z,21.7
2018-03-02T18:21:26.266Z,21.7
2018-03-02T18:31:26.278Z,20.5
2018-03-02T18:41:28.081Z,23.5
2018-03-02T18:51:25.762Z,27.0
2018-03-02T19:01:28.110Z,24.5
2018-03-02T19:11:25.546Z,22.7
2018-03-02T19:21:27.147Z,20.8
2018-03-02T19:31:27.297Z,22.6
2018-03-02T19:41:27.113Z,21.7
2018-03-02T19:51:27.880Z,21.1
2018-03-02T20:01:26.408Z,20.8
2018-03-02T20:11:27.220Z,22.4
2018-03-02T20:21:25.539Z,22.1
2018-03-02T20:31:27.190Z,24.2
2018-03-02T20:41:26.923Z,23.8
2018-03-02T20:51:32.249Z,24.6
2018-03-02T21:01:25.824Z,21.4
2018-03-02T21:11:26.365Z,22.9
2018-03-02T21:21:26.052Z,23.5
2018-03-02T21:31:26.138Z,24.2
2018-03-02T21:41:25.743Z,22.2
2018-03-02T21:51:26.442Z,21.6
2018-03-02T22:01:26.346Z,23.4
2018-03-02T22:11:25.737Z,24.0
2018-03-02T22:21:26.521Z,26.0
2018-03-02T22:31:27.061Z,25.2
2018-03-02T22:41:26.841Z,22.6
2018-03-02T22:51:26.455Z,24.7
2018-03-02T23:01:26.487Z,21.8
2018-03-02T23:11:27.627Z,21.2
2018-03-02T23:21:26.629Z,20.9
2018-03-02T23:31:28.296Z,23.0
2018-03-02T23:41:26.422Z,20.6
2018-03-02T23:51:27.241Z,22.4
